PWSweather.com
Personal Weather Stations
Station Observations
RIORANCHO
Corrales Heights, Rio Rancho, NM 87124

Corrales HeightsRio Rancho, NM 87124

Lat: 35.241928, Lon: -106.647095

Elevation: 5297

Station Type: Davis Vantage Pro 2 Plus

http://www.weatherriorancho.com

High Low Average
Temperature 94.0°F34.4°C 58.3°F14.6°C 78.5°F25.8°C
Dew Point 24.4°F-4.2°C -0.2°F-17.9°C 12.4°F-10.9°C
Winds 16.1 mph 25.9 kmh Calm Calm 2.0 mph SW3.2 kmh SW
Wind Gusts 25.3 mph40.7 kmh -- 5.0 mph8.0 kmh
Humidity 18% 3% 9%
Pressure 30.09 in1019.0 mb 29.98 in1015.2 mb -
Precipitation 0.00 in0.0 mm - -
Hour Temp Dew Point Humidity Winds Wind Gusts Pressure Precip Precip Rate Daily Precip Total
12:00 AM 73.8°F23.2°C 13.8°F-10.1°C 10% Calm Calm -- 29.98 in1015.2 mb - 0.00 in0.0 mm 0.00 in0.0 mm
12:10 AM 73.5°F23.1°C 13.5°F-10.3°C 10% Calm Calm -- 29.98 in1015.2 mb - 0.00 in0.0 mm 0.00 in0.0 mm
12:20 AM 72.8°F22.7°C 15.2°F-9.3°C 11% Calm Calm -- 29.98 in1015.2 mb - 0.00 in0.0 mm 0.00 in0.0 mm
12:30 AM 72.1°F22.3°C 12.5°F-10.8°C 10% Calm Calm -- 29.98 in1015.2 mb - 0.00 in0.0 mm 0.00 in0.0 mm
12:40 AM 72.2°F22.3°C 12.5°F-10.8°C 10% Calm Calm 2.3 mph3.7 kmh 29.98 in1015.2 mb - 0.00 in0.0 mm 0.00 in0.0 mm
12:50 AM 73.1°F22.8°C 13.2°F-10.4°C 10% Calm Calm -- 29.98 in1015.2 mb - 0.00 in0.0 mm 0.00 in0.0 mm
01:00 AM 73.4°F23.0°C 13.5°F-10.3°C 10% Calm Calm -- 29.98 in1015.2 mb - 0.00 in0.0 mm 0.00 in0.0 mm
01:10 AM 73.2°F22.9°C 13.3°F-10.4°C 10% Calm Calm -- 29.98 in1015.2 mb - 0.00 in0.0 mm 0.00 in0.0 mm
01:20 AM 72.5°F22.5°C 15.0°F-9.4°C 11% Calm Calm -- 29.98 in1015.2 mb - 0.00 in0.0 mm 0.00 in0.0 mm
01:30 AM 72.0°F22.2°C 14.5°F-9.7°C 11% Calm Calm -- 29.99 in1015.6 mb - 0.00 in0.0 mm 0.00 in0.0 mm
01:40 AM 70.7°F21.5°C 15.5°F-9.2°C 12% Calm Calm -- 29.99 in1015.6 mb - 0.00 in0.0 mm 0.00 in0.0 mm
01:50 AM 70.3°F21.3°C 15.2°F-9.3°C 12% Calm Calm -- 29.99 in1015.6 mb - 0.00 in0.0 mm 0.00 in0.0 mm
02:00 AM 70.3°F21.3°C 15.2°F-9.3°C 12% Calm Calm -- 29.99 in1015.6 mb - 0.00 in0.0 mm 0.00 in0.0 mm
02:10 AM 70.2°F21.2°C 17.0°F-8.3°C 13% Calm Calm -- 29.99 in1015.6 mb - 0.00 in0.0 mm 0.00 in0.0 mm
02:20 AM 70.8°F21.6°C 15.6°F-9.1°C 12% Calm Calm -- 29.99 in1015.6 mb - 0.00 in0.0 mm 0.00 in0.0 mm
02:30 AM 70.3°F21.3°C 17.1°F-8.3°C 13% Calm Calm -- 29.99 in1015.6 mb - 0.00 in0.0 mm 0.00 in0.0 mm
02:40 AM 69.9°F21.1°C 16.8°F-8.4°C 13% Calm Calm 1.2 mph1.9 kmh 29.99 in1015.6 mb - 0.00 in0.0 mm 0.00 in0.0 mm
02:50 AM 70.2°F21.2°C 17.0°F-8.3°C 13% Calm Calm 2.3 mph3.7 kmh 29.99 in1015.6 mb - 0.00 in0.0 mm 0.00 in0.0 mm
03:00 AM 70.0°F21.1°C 16.8°F-8.4°C 13% Calm Calm 2.3 mph3.7 kmh 30.00 in1015.9 mb - 0.00 in0.0 mm 0.00 in0.0 mm
03:10 AM 70.2°F21.2°C 15.1°F-9.4°C 12% Calm Calm 1.2 mph1.9 kmh 30.00 in1015.9 mb - 0.00 in0.0 mm 0.00 in0.0 mm
03:20 AM 69.7°F20.9°C 18.3°F-7.6°C 14% Calm Calm -- 30.00 in1015.9 mb - 0.00 in0.0 mm 0.00 in0.0 mm
03:30 AM 68.6°F20.3°C 19.1°F-7.2°C 15% Calm Calm -- 30.00 in1015.9 mb - 0.00 in0.0 mm 0.00 in0.0 mm
03:40 AM 67.4°F19.7°C 18.1°F-7.7°C 15% Calm Calm -- 30.01 in1016.3 mb - 0.00 in0.0 mm 0.00 in0.0 mm
03:50 AM 66.0°F18.9°C 16.9°F-8.4°C 15% Calm Calm -- 30.01 in1016.3 mb - 0.00 in0.0 mm 0.00 in0.0 mm
04:00 AM 64.8°F18.2°C 16.0°F-8.9°C 15% Calm Calm -- 30.00 in1015.9 mb - 0.00 in0.0 mm 0.00 in0.0 mm
04:10 AM 63.5°F17.5°C 15.0°F-9.4°C 15% Calm Calm 1.2 mph1.9 kmh 30.01 in1016.3 mb - 0.00 in0.0 mm 0.00 in0.0 mm
04:20 AM 62.9°F17.2°C 16.0°F-8.9°C 16% Calm Calm 2.3 mph3.7 kmh 30.01 in1016.3 mb - 0.00 in0.0 mm 0.00 in0.0 mm
04:30 AM 62.2°F16.8°C 13.9°F-10.1°C 15% Calm Calm 2.3 mph3.7 kmh 30.01 in1016.3 mb - 0.00 in0.0 mm 0.00 in0.0 mm
04:40 AM 61.4°F16.3°C 13.3°F-10.4°C 15% Calm Calm 1.2 mph1.9 kmh 30.01 in1016.3 mb - 0.00 in0.0 mm 0.00 in0.0 mm
04:50 AM 61.0°F16.1°C 14.4°F-9.8°C 16% Calm Calm -- 30.02 in1016.6 mb - 0.00 in0.0 mm 0.00 in0.0 mm
05:00 AM 60.5°F15.8°C 14.0°F-10.0°C 16% Calm Calm 2.3 mph3.7 kmh 30.02 in1016.6 mb - 0.00 in0.0 mm 0.00 in0.0 mm
05:10 AM 60.1°F15.6°C 15.1°F-9.4°C 17% Calm Calm -- 30.02 in1016.6 mb - 0.00 in0.0 mm 0.00 in0.0 mm
05:20 AM 59.8°F15.4°C 14.8°F-9.6°C 17% Calm Calm 1.2 mph1.9 kmh 30.02 in1016.6 mb - 0.00 in0.0 mm 0.00 in0.0 mm
05:30 AM 59.4°F15.2°C 15.8°F-9.0°C 18% Calm Calm -- 30.03 in1016.9 mb - 0.00 in0.0 mm 0.00 in0.0 mm
05:40 AM 59.1°F15.1°C 14.3°F-9.8°C 17% Calm Calm 1.2 mph1.9 kmh 30.03 in1016.9 mb - 0.00 in0.0 mm 0.00 in0.0 mm
05:50 AM 58.8°F14.9°C 14.0°F-10.0°C 17% Calm Calm 1.2 mph1.9 kmh 30.03 in1016.9 mb - 0.00 in0.0 mm 0.00 in0.0 mm
06:00 AM 58.5°F14.7°C 13.8°F-10.1°C 17% Calm Calm 2.3 mph3.7 kmh 30.04 in1017.3 mb - 0.00 in0.0 mm 0.00 in0.0 mm
06:10 AM 58.3°F14.6°C 14.9°F-9.5°C 18% Calm Calm 1.2 mph1.9 kmh 30.04 in1017.3 mb - 0.00 in0.0 mm 0.00 in0.0 mm
06:20 AM 58.3°F14.6°C 14.9°F-9.5°C 18% Calm Calm 1.2 mph1.9 kmh 30.05 in1017.6 mb - 0.00 in0.0 mm 0.00 in0.0 mm
06:30 AM 58.6°F14.8°C 15.2°F-9.3°C 18% Calm Calm 1.2 mph1.9 kmh 30.05 in1017.6 mb - 0.00 in0.0 mm 0.00 in0.0 mm
06:40 AM 60.2°F15.7°C 15.1°F-9.4°C 17% Calm Calm -- 30.05 in1017.6 mb - 0.00 in0.0 mm 0.00 in0.0 mm
06:50 AM 61.6°F16.4°C 14.9°F-9.5°C 16% Calm Calm -- 30.06 in1017.9 mb - 0.00 in0.0 mm 0.00 in0.0 mm
07:00 AM 63.6°F17.6°C 13.4°F-10.3°C 14% 1.2 mph WNW1.9 kmh WNW 2.3 mph3.7 kmh 30.06 in1017.9 mb - 0.00 in0.0 mm 0.00 in0.0 mm
07:10 AM 65.5°F18.6°C 15.0°F-9.4°C 14% Calm Calm 2.3 mph3.7 kmh 30.06 in1017.9 mb - 0.00 in0.0 mm 0.00 in0.0 mm
07:20 AM 66.2°F19.0°C 17.1°F-8.3°C 15% Calm Calm 2.3 mph3.7 kmh 30.07 in1018.3 mb - 0.00 in0.0 mm 0.00 in0.0 mm
07:30 AM 66.8°F19.3°C 16.0°F-8.9°C 14% Calm Calm -- 30.07 in1018.3 mb - 0.00 in0.0 mm 0.00 in0.0 mm
07:40 AM 67.6°F19.8°C 18.3°F-7.6°C 15% Calm Calm -- 30.07 in1018.3 mb - 0.00 in0.0 mm 0.00 in0.0 mm
07:50 AM 68.0°F20.0°C 18.6°F-7.4°C 15% Calm Calm -- 30.07 in1018.3 mb - 0.00 in0.0 mm 0.00 in0.0 mm
08:00 AM 69.0°F20.6°C 16.1°F-8.8°C 13% Calm Calm -- 30.07 in1018.3 mb - 0.00 in0.0 mm 0.00 in0.0 mm
08:10 AM 69.9°F21.1°C 21.6°F-5.8°C 16% Calm Calm -- 30.08 in1018.6 mb - 0.00 in0.0 mm 0.00 in0.0 mm
08:20 AM 70.7°F21.5°C 23.7°F-4.6°C 17% Calm Calm -- 30.08 in1018.6 mb - 0.00 in0.0 mm 0.00 in0.0 mm
08:30 AM 70.9°F21.6°C 23.9°F-4.5°C 17% Calm Calm -- 30.08 in1018.6 mb - 0.00 in0.0 mm 0.00 in0.0 mm
08:40 AM 71.5°F21.9°C 24.3°F-4.3°C 17% Calm Calm -- 30.08 in1018.6 mb - 0.00 in0.0 mm 0.00 in0.0 mm
08:50 AM 73.3°F22.9°C 24.4°F-4.2°C 16% Calm Calm -- 30.08 in1018.6 mb - 0.00 in0.0 mm 0.00 in0.0 mm
09:00 AM 74.9°F23.8°C 22.5°F-5.3°C 14% Calm Calm -- 30.08 in1018.6 mb - 0.00 in0.0 mm 0.00 in0.0 mm
09:10 AM 76.8°F24.9°C 18.2°F-7.7°C 11% Calm Calm -- 30.08 in1018.6 mb - 0.00 in0.0 mm 0.00 in0.0 mm
09:20 AM 78.2°F25.7°C 17.2°F-8.2°C 10% 1.2 mph NE1.9 kmh NE 3.5 mph5.6 kmh 30.08 in1018.6 mb - 0.00 in0.0 mm 0.00 in0.0 mm
09:30 AM 79.4°F26.3°C 20.3°F-6.5°C 11% Calm Calm -- 30.09 in1019.0 mb - 0.00 in0.0 mm 0.00 in0.0 mm
09:40 AM 80.4°F26.9°C 18.8°F-7.3°C 10% Calm Calm 1.2 mph1.9 kmh 30.08 in1018.6 mb - 0.00 in0.0 mm 0.00 in0.0 mm
09:50 AM 81.1°F27.3°C 16.9°F-8.4°C 9% Calm Calm 1.2 mph1.9 kmh 30.08 in1018.6 mb - 0.00 in0.0 mm 0.00 in0.0 mm
10:00 AM 82.1°F27.8°C 17.6°F-8.0°C 9% Calm Calm 3.5 mph5.6 kmh 30.08 in1018.6 mb - 0.00 in0.0 mm 0.00 in0.0 mm
10:10 AM 82.5°F28.1°C 17.9°F-7.8°C 9% Calm Calm 1.2 mph1.9 kmh 30.08 in1018.6 mb - 0.00 in0.0 mm 0.00 in0.0 mm
10:20 AM 82.9°F28.3°C 15.5°F-9.2°C 8% Calm Calm -- 30.07 in1018.3 mb - 0.00 in0.0 mm 0.00 in0.0 mm
10:30 AM 82.6°F28.1°C 15.3°F-9.3°C 8% 2.3 mph SE3.7 kmh SE 4.6 mph7.4 kmh 30.07 in1018.3 mb - 0.00 in0.0 mm 0.00 in0.0 mm
10:40 AM 82.0°F27.8°C 11.8°F-11.2°C 7% Calm Calm -- 30.07 in1018.3 mb - 0.00 in0.0 mm 0.00 in0.0 mm
10:50 AM 82.5°F28.1°C 12.2°F-11.0°C 7% Calm Calm -- 30.07 in1018.3 mb - 0.00 in0.0 mm 0.00 in0.0 mm
11:00 AM 83.3°F28.5°C 15.8°F-9.0°C 8% 1.2 mph E1.9 kmh E 2.3 mph3.7 kmh 30.07 in1018.3 mb - 0.00 in0.0 mm 0.00 in0.0 mm
11:10 AM 83.8°F28.8°C 16.2°F-8.8°C 8% 3.5 mph ESE5.6 kmh ESE 3.5 mph5.6 kmh 30.07 in1018.3 mb - 0.00 in0.0 mm 0.00 in0.0 mm
11:20 AM 84.3°F29.1°C 13.5°F-10.3°C 7% 1.2 mph SSW1.9 kmh SSW 3.5 mph5.6 kmh 30.07 in1018.3 mb - 0.00 in0.0 mm 0.00 in0.0 mm
11:30 AM 83.8°F28.8°C 16.2°F-8.8°C 8% 2.3 mph SE3.7 kmh SE 3.5 mph5.6 kmh 30.07 in1018.3 mb - 0.00 in0.0 mm 0.00 in0.0 mm
11:40 AM 83.3°F28.5°C 12.8°F-10.7°C 7% Calm Calm -- 30.07 in1018.3 mb - 0.00 in0.0 mm 0.00 in0.0 mm
11:50 AM 84.6°F29.2°C 13.7°F-10.2°C 7% 2.3 mph SE3.7 kmh SE 4.6 mph7.4 kmh 30.07 in1018.3 mb - 0.00 in0.0 mm 0.00 in0.0 mm
12:00 PM 84.7°F29.3°C 13.8°F-10.1°C 7% 5.8 mph SE9.3 kmh SE 6.9 mph11.1 kmh 30.06 in1017.9 mb - 0.00 in0.0 mm 0.00 in0.0 mm
12:10 PM 85.3°F29.6°C 14.2°F-9.9°C 7% 3.5 mph SE5.6 kmh SE 9.2 mph14.8 kmh 30.06 in1017.9 mb - 0.00 in0.0 mm 0.00 in0.0 mm
12:20 PM 85.6°F29.8°C 14.5°F-9.7°C 7% 2.3 mph ESE3.7 kmh ESE 8.1 mph13.0 kmh 30.06 in1017.9 mb - 0.00 in0.0 mm 0.00 in0.0 mm
12:30 PM 86.4°F30.2°C 18.1°F-7.7°C 8% Calm Calm 1.2 mph1.9 kmh 30.06 in1017.9 mb - 0.00 in0.0 mm 0.00 in0.0 mm
12:40 PM 87.2°F30.7°C 12.1°F-11.1°C 6% 2.3 mph SE3.7 kmh SE 4.6 mph7.4 kmh 30.06 in1017.9 mb - 0.00 in0.0 mm 0.00 in0.0 mm
12:50 PM 86.8°F30.4°C 15.3°F-9.3°C 7% 2.3 mph E3.7 kmh E 8.1 mph13.0 kmh 30.05 in1017.6 mb - 0.00 in0.0 mm 0.00 in0.0 mm
01:00 PM 86.6°F30.3°C 11.7°F-11.3°C 6% 5.8 mph ESE9.3 kmh ESE 11.5 mph18.5 kmh 30.05 in1017.6 mb - 0.00 in0.0 mm 0.00 in0.0 mm
01:10 PM 87.2°F30.7°C 15.6°F-9.1°C 7% Calm Calm 2.3 mph3.7 kmh 30.05 in1017.6 mb - 0.00 in0.0 mm 0.00 in0.0 mm
01:20 PM 88.7°F31.5°C 9.0°F-12.8°C 5% 5.8 mph SE9.3 kmh SE 6.9 mph11.1 kmh 30.05 in1017.6 mb - 0.00 in0.0 mm 0.00 in0.0 mm
01:30 PM 88.0°F31.1°C 12.7°F-10.7°C 6% Calm Calm -- 30.05 in1017.6 mb - 0.00 in0.0 mm 0.00 in0.0 mm
01:40 PM 88.4°F31.3°C 13.0°F-10.6°C 6% 2.3 mph SW3.7 kmh SW 5.8 mph9.3 kmh 30.05 in1017.6 mb - 0.00 in0.0 mm 0.00 in0.0 mm
01:50 PM 88.3°F31.3°C 8.8°F-12.9°C 5% 1.2 mph SSE1.9 kmh SSE 6.9 mph11.1 kmh 30.05 in1017.6 mb - 0.00 in0.0 mm 0.00 in0.0 mm
02:00 PM 89.4°F31.9°C 9.6°F-12.4°C 5% 8.1 mph SW13.0 kmh SW 11.5 mph18.5 kmh 30.05 in1017.6 mb - 0.00 in0.0 mm 0.00 in0.0 mm
02:10 PM 89.1°F31.7°C 9.3°F-12.6°C 5% 2.3 mph SW3.7 kmh SW 15.0 mph24.1 kmh 30.04 in1017.3 mb - 0.00 in0.0 mm 0.00 in0.0 mm
02:20 PM 90.9°F32.7°C 10.6°F-11.9°C 5% 8.1 mph WSW13.0 kmh WSW 10.4 mph16.7 kmh 30.04 in1017.3 mb - 0.00 in0.0 mm 0.00 in0.0 mm
02:30 PM 90.1°F32.3°C 10.0°F-12.2°C 5% 2.3 mph SW3.7 kmh SW 4.6 mph7.4 kmh 30.04 in1017.3 mb - 0.00 in0.0 mm 0.00 in0.0 mm
02:40 PM 91.1°F32.8°C 10.8°F-11.8°C 5% 2.3 mph SW3.7 kmh SW 6.9 mph11.1 kmh 30.03 in1016.9 mb - 0.00 in0.0 mm 0.00 in0.0 mm
02:50 PM 90.2°F32.3°C 10.1°F-12.2°C 5% 4.6 mph SW7.4 kmh SW 5.8 mph9.3 kmh 30.03 in1016.9 mb - 0.00 in0.0 mm 0.00 in0.0 mm
03:00 PM 90.0°F32.2°C 10.0°F-12.2°C 5% 4.6 mph S7.4 kmh S 9.2 mph14.8 kmh 30.02 in1016.6 mb - 0.00 in0.0 mm 0.00 in0.0 mm
03:10 PM 90.1°F32.3°C 10.0°F-12.2°C 5% Calm Calm -- 30.02 in1016.6 mb - 0.00 in0.0 mm 0.00 in0.0 mm
03:20 PM 90.4°F32.4°C 14.4°F-9.8°C 6% Calm Calm 1.2 mph1.9 kmh 30.02 in1016.6 mb - 0.00 in0.0 mm 0.00 in0.0 mm
03:30 PM 92.1°F33.4°C 6.5°F-14.2°C 4% 2.3 mph SSW3.7 kmh SSW 2.3 mph3.7 kmh 30.02 in1016.6 mb - 0.00 in0.0 mm 0.00 in0.0 mm
03:40 PM 92.7°F33.7°C 0.6°F-17.4°C 3% 9.2 mph SSW14.8 kmh SSW 11.5 mph18.5 kmh 30.01 in1016.3 mb - 0.00 in0.0 mm 0.00 in0.0 mm
03:50 PM 93.3°F34.1°C 1.1°F-17.2°C 3% 5.8 mph SSW9.3 kmh SSW 15.0 mph24.1 kmh 30.01 in1016.3 mb - 0.00 in0.0 mm 0.00 in0.0 mm
04:00 PM 94.0°F34.4°C 1.5°F-16.9°C 3% 16.1 mph SW25.9 kmh SW 20.7 mph33.3 kmh 30.00 in1015.9 mb - 0.00 in0.0 mm 0.00 in0.0 mm
04:10 PM 93.4°F34.1°C 1.1°F-17.2°C 3% 8.1 mph S13.0 kmh S 13.8 mph22.2 kmh 30.00 in1015.9 mb - 0.00 in0.0 mm 0.00 in0.0 mm
04:20 PM 92.9°F33.8°C 0.8°F-17.3°C 3% 11.5 mph WSW18.5 kmh WSW 16.1 mph25.9 kmh 30.00 in1015.9 mb - 0.00 in0.0 mm 0.00 in0.0 mm
04:30 PM 92.7°F33.7°C 0.6°F-17.4°C 3% 8.1 mph SW13.0 kmh SW 11.5 mph18.5 kmh 30.00 in1015.9 mb - 0.00 in0.0 mm 0.00 in0.0 mm
04:40 PM 93.7°F34.3°C 1.3°F-17.1°C 3% 12.7 mph SW20.4 kmh SW 21.9 mph35.2 kmh 30.00 in1015.9 mb - 0.00 in0.0 mm 0.00 in0.0 mm
04:50 PM 93.6°F34.2°C 1.2°F-17.1°C 3% 13.8 mph SW22.2 kmh SW 24.2 mph38.9 kmh 29.99 in1015.6 mb - 0.00 in0.0 mm 0.00 in0.0 mm
05:00 PM 93.9°F34.4°C 1.4°F-17.0°C 3% 10.4 mph WSW16.7 kmh WSW 18.4 mph29.6 kmh 30.00 in1015.9 mb - 0.00 in0.0 mm 0.00 in0.0 mm
05:10 PM 93.7°F34.3°C 1.3°F-17.1°C 3% 12.7 mph SW20.4 kmh SW 25.3 mph40.7 kmh 29.99 in1015.6 mb - 0.00 in0.0 mm 0.00 in0.0 mm
05:20 PM 92.8°F33.8°C 0.7°F-17.4°C 3% 6.9 mph WSW11.1 kmh WSW 20.7 mph33.3 kmh 29.99 in1015.6 mb - 0.00 in0.0 mm 0.00 in0.0 mm
05:30 PM 92.9°F33.8°C 0.7°F-17.4°C 3% 9.2 mph SW14.8 kmh SW 11.5 mph18.5 kmh 29.99 in1015.6 mb - 0.00 in0.0 mm 0.00 in0.0 mm
05:40 PM 93.3°F34.1°C 1.0°F-17.2°C 3% 5.8 mph SW9.3 kmh SW 15.0 mph24.1 kmh 29.99 in1015.6 mb - 0.00 in0.0 mm 0.00 in0.0 mm
05:50 PM 93.3°F34.1°C 1.0°F-17.2°C 3% 3.5 mph W5.6 kmh W 4.6 mph7.4 kmh 29.99 in1015.6 mb - 0.00 in0.0 mm 0.00 in0.0 mm
06:00 PM 92.9°F33.8°C 0.8°F-17.3°C 3% 10.4 mph WSW16.7 kmh WSW 17.3 mph27.8 kmh 29.99 in1015.6 mb - 0.00 in0.0 mm 0.00 in0.0 mm
06:10 PM 93.0°F33.9°C 0.8°F-17.3°C 3% 3.5 mph WSW5.6 kmh WSW 10.4 mph16.7 kmh 29.98 in1015.2 mb - 0.00 in0.0 mm 0.00 in0.0 mm
06:20 PM 93.0°F33.9°C 0.8°F-17.3°C 3% 8.1 mph SW13.0 kmh SW 16.1 mph25.9 kmh 29.98 in1015.2 mb - 0.00 in0.0 mm 0.00 in0.0 mm
06:30 PM 92.4°F33.6°C 0.4°F-17.6°C 3% 6.9 mph WSW11.1 kmh WSW 15.0 mph24.1 kmh 29.98 in1015.2 mb - 0.00 in0.0 mm 0.00 in0.0 mm
06:40 PM 92.1°F33.4°C 0.2°F-17.7°C 3% 8.1 mph WSW13.0 kmh WSW 13.8 mph22.2 kmh 29.99 in1015.6 mb - 0.00 in0.0 mm 0.00 in0.0 mm
06:50 PM 91.9°F33.3°C 0.1°F-17.7°C 3% 6.9 mph WSW11.1 kmh WSW 11.5 mph18.5 kmh 29.99 in1015.6 mb - 0.00 in0.0 mm 0.00 in0.0 mm
07:00 PM 91.4°F33.0°C -0.2°F-17.9°C 3% 11.5 mph WSW18.5 kmh WSW 18.4 mph29.6 kmh 29.99 in1015.6 mb - 0.00 in0.0 mm 0.00 in0.0 mm
07:10 PM 91.0°F32.8°C 5.7°F-14.6°C 4% 6.9 mph W11.1 kmh W 13.8 mph22.2 kmh 30.00 in1015.9 mb - 0.00 in0.0 mm 0.00 in0.0 mm
07:20 PM 89.9°F32.2°C 5.0°F-15.0°C 4% 5.8 mph W9.3 kmh W 8.1 mph13.0 kmh 30.00 in1015.9 mb - 0.00 in0.0 mm 0.00 in0.0 mm
07:30 PM 89.3°F31.8°C 4.6°F-15.2°C 4% 2.3 mph W3.7 kmh W 11.5 mph18.5 kmh 30.00 in1015.9 mb - 0.00 in0.0 mm 0.00 in0.0 mm
07:40 PM 88.5°F31.4°C 8.9°F-12.8°C 5% 3.5 mph WNW5.6 kmh WNW 11.5 mph18.5 kmh 30.00 in1015.9 mb - 0.00 in0.0 mm 0.00 in0.0 mm
07:50 PM 87.7°F30.9°C 8.4°F-13.1°C 5% 4.6 mph W7.4 kmh W 19.6 mph31.5 kmh 30.00 in1015.9 mb - 0.00 in0.0 mm 0.00 in0.0 mm
08:00 PM 87.0°F30.6°C 7.8°F-13.4°C 5% 5.8 mph W9.3 kmh W 12.7 mph20.4 kmh 30.01 in1016.3 mb - 0.00 in0.0 mm 0.00 in0.0 mm
08:10 PM 86.2°F30.1°C 7.3°F-13.7°C 5% 1.2 mph W1.9 kmh W 9.2 mph14.8 kmh 30.01 in1016.3 mb - 0.00 in0.0 mm 0.00 in0.0 mm
08:20 PM 85.5°F29.7°C 6.8°F-14.0°C 5% 2.3 mph WNW3.7 kmh WNW 3.5 mph5.6 kmh 30.01 in1016.3 mb - 0.00 in0.0 mm 0.00 in0.0 mm
08:30 PM 84.7°F29.3°C 6.2°F-14.3°C 5% 1.2 mph WNW1.9 kmh WNW 6.9 mph11.1 kmh 30.01 in1016.3 mb - 0.00 in0.0 mm 0.00 in0.0 mm
08:40 PM 83.9°F28.8°C 9.7°F-12.4°C 6% 1.2 mph W1.9 kmh W 3.5 mph5.6 kmh 30.02 in1016.6 mb - 0.00 in0.0 mm 0.00 in0.0 mm
08:50 PM 83.0°F28.3°C 9.1°F-12.7°C 6% 1.2 mph WNW1.9 kmh WNW 3.5 mph5.6 kmh 30.02 in1016.6 mb - 0.00 in0.0 mm 0.00 in0.0 mm
09:00 PM 82.1°F27.8°C 11.9°F-11.2°C 7% 2.3 mph WNW3.7 kmh WNW 3.5 mph5.6 kmh 30.02 in1016.6 mb - 0.00 in0.0 mm 0.00 in0.0 mm
09:10 PM 81.4°F27.4°C 11.4°F-11.4°C 7% 1.2 mph WNW1.9 kmh WNW 5.8 mph9.3 kmh 30.03 in1016.9 mb - 0.00 in0.0 mm 0.00 in0.0 mm
09:20 PM 80.6°F27.0°C 13.8°F-10.1°C 8% Calm Calm 1.2 mph1.9 kmh 30.03 in1016.9 mb - 0.00 in0.0 mm 0.00 in0.0 mm
09:30 PM 79.7°F26.5°C 13.1°F-10.5°C 8% Calm Calm 1.2 mph1.9 kmh 30.03 in1016.9 mb - 0.00 in0.0 mm 0.00 in0.0 mm
09:40 PM 78.7°F25.9°C 12.4°F-10.9°C 8% Calm Calm 3.5 mph5.6 kmh 30.04 in1017.3 mb - 0.00 in0.0 mm 0.00 in0.0 mm
09:50 PM 77.9°F25.5°C 14.5°F-9.7°C 9% 1.2 mph W1.9 kmh W 5.8 mph9.3 kmh 30.04 in1017.3 mb - 0.00 in0.0 mm 0.00 in0.0 mm
10:00 PM 77.6°F25.3°C 14.2°F-9.9°C 9% Calm Calm 2.3 mph3.7 kmh 30.05 in1017.6 mb - 0.00 in0.0 mm 0.00 in0.0 mm
10:10 PM 77.4°F25.2°C 14.1°F-9.9°C 9% 1.2 mph WNW1.9 kmh WNW 4.6 mph7.4 kmh 30.05 in1017.6 mb - 0.00 in0.0 mm 0.00 in0.0 mm
10:20 PM 77.0°F25.0°C 13.8°F-10.1°C 9% 1.2 mph WNW1.9 kmh WNW -- 30.05 in1017.6 mb - 0.00 in0.0 mm 0.00 in0.0 mm
10:30 PM 76.5°F24.7°C 13.4°F-10.3°C 9% Calm Calm 2.3 mph3.7 kmh 30.06 in1017.9 mb - 0.00 in0.0 mm 0.00 in0.0 mm
10:40 PM 75.7°F24.3°C 12.8°F-10.7°C 9% Calm Calm -- 30.06 in1017.9 mb - 0.00 in0.0 mm 0.00 in0.0 mm
10:50 PM 75.0°F23.9°C 14.7°F-9.6°C 10% 1.2 mph NW1.9 kmh NW 3.5 mph5.6 kmh 30.07 in1018.3 mb - 0.00 in0.0 mm 0.00 in0.0 mm
11:00 PM 74.6°F23.7°C 14.4°F-9.8°C 10% Calm Calm -- 30.07 in1018.3 mb - 0.00 in0.0 mm 0.00 in0.0 mm
11:10 PM 74.3°F23.5°C 14.1°F-9.9°C 10% Calm Calm -- 30.07 in1018.3 mb - 0.00 in0.0 mm 0.00 in0.0 mm
11:20 PM 73.7°F23.2°C 13.7°F-10.2°C 10% 1.2 mph WNW1.9 kmh WNW 3.5 mph5.6 kmh 30.07 in1018.3 mb - 0.00 in0.0 mm 0.00 in0.0 mm
11:30 PM 73.0°F22.8°C 15.3°F-9.3°C 11% 2.3 mph NW3.7 kmh NW 3.5 mph5.6 kmh 30.07 in1018.3 mb - 0.00 in0.0 mm 0.00 in0.0 mm
11:40 PM 72.2°F22.3°C 14.7°F-9.6°C 11% Calm Calm -- 30.07 in1018.3 mb - 0.00 in0.0 mm 0.00 in0.0 mm
11:50 PM 71.6°F22.0°C 14.2°F-9.9°C 11% Calm Calm -- 30.08 in1018.6 mb - 0.00 in0.0 mm 0.00 in0.0 mm